createdAt,value
2022-12-03T00:02:35.000Z,68.76
2022-12-03T00:07:34.000Z,67.13
2022-12-03T00:17:34.000Z,67.52
2022-12-03T00:22:35.000Z,67.04
2022-12-03T00:27:35.000Z,68.19
2022-12-03T00:32:34.000Z,69.31
2022-12-03T00:37:35.000Z,66.91
2022-12-03T00:42:34.000Z,65.55
2022-12-03T00:47:35.000Z,62.81
2022-12-03T00:52:34.000Z,62.57
2022-12-03T00:57:34.000Z,63.03
2022-12-03T01:02:34.000Z,63.03
2022-12-03T01:07:34.000Z,63.25
2022-12-03T01:12:35.000Z,63.66
2022-12-03T01:17:34.000Z,59.46
2022-12-03T01:22:35.000Z,63.13
2022-12-03T01:27:35.000Z,61.85
2022-12-03T01:32:35.000Z,61.32
2022-12-03T01:37:35.000Z,64.46
2022-12-03T01:42:35.000Z,61.59
2022-12-03T01:47:35.000Z,65.09
2022-12-03T01:52:35.000Z,65.2
2022-12-03T01:57:34.000Z,65.88
2022-12-03T02:02:34.000Z,64.47
2022-12-03T02:07:34.000Z,64.66
2022-12-03T02:12:34.000Z,64.66
2022-12-03T02:17:35.000Z,62.17
2022-12-03T02:22:34.000Z,61.94
2022-12-03T02:27:34.000Z,61
2022-12-03T02:32:34.000Z,58.57
2022-12-03T02:37:34.000Z,60.34
2022-12-03T02:42:35.000Z,57.89
2022-12-03T02:47:35.000Z,62.67
2022-12-03T02:52:35.000Z,66.19
2022-12-03T02:57:34.000Z,65.3
2022-12-03T03:07:34.000Z,64.08
2022-12-03T03:12:35.000Z,62.26
2022-12-03T03:17:34.000Z,62.26
2022-12-03T03:22:35.000Z,60.9
2022-12-03T03:27:34.000Z,58.16
2022-12-03T03:32:35.000Z,58.69
2022-12-03T03:37:35.000Z,59.07
2022-12-03T03:42:35.000Z,58.05
2022-12-03T03:52:35.000Z,56.1
2022-12-03T03:57:35.000Z,57.79
2022-12-03T04:02:34.000Z,56.83
2022-12-03T04:07:35.000Z,56.36
2022-12-03T04:12:35.000Z,56.36
2022-12-03T04:17:34.000Z,56.21
2022-12-03T04:22:35.000Z,56.03
2022-12-03T04:27:34.000Z,55.1
2022-12-03T04:37:34.000Z,52.93
2022-12-03T04:42:34.000Z,53.56
2022-12-03T04:47:35.000Z,51.45
2022-12-03T04:52:34.000Z,53.29
2022-12-03T04:57:35.000Z,56.02
2022-12-03T05:02:34.000Z,56.02
2022-12-03T05:07:34.000Z,57.69
2022-12-03T05:12:35.000Z,59.22
2022-12-03T05:17:34.000Z,61.6
2022-12-03T05:22:35.000Z,61.37
2022-12-03T05:27:34.000Z,65.38
2022-12-03T05:32:35.000Z,62.64
2022-12-03T05:37:34.000Z,61.86
2022-12-03T05:42:35.000Z,54.83
2022-12-03T05:47:35.000Z,48.74
2022-12-03T05:52:34.000Z,50.75
2022-12-03T05:57:35.000Z,56.12
2022-12-03T06:02:35.000Z,59.67
2022-12-03T06:07:34.000Z,59.67
2022-12-03T06:12:35.000Z,58.36
2022-12-03T06:17:34.000Z,59.09
2022-12-03T06:22:34.000Z,65.1
2022-12-03T06:27:35.000Z,59.57
2022-12-03T06:32:35.000Z,71.92
2022-12-03T06:37:34.000Z,76.34
2022-12-03T06:42:35.000Z,68.56
2022-12-03T06:47:35.000Z,75.9
2022-12-03T06:52:34.000Z,90.17
2022-12-03T07:02:34.000Z,84.54
2022-12-03T07:07:35.000Z,78.26
2022-12-03T07:12:34.000Z,71.07
2022-12-03T07:17:34.000Z,69.93
2022-12-03T07:22:35.000Z,66.45
2022-12-03T07:27:35.000Z,73.01
2022-12-03T07:32:35.000Z,86.33
2022-12-03T07:37:34.000Z,90.06
2022-12-03T07:42:35.000Z,90.06
2022-12-03T07:47:35.000Z,78.9
2022-12-03T07:52:35.000Z,76.33
2022-12-03T07:57:34.000Z,67.31
2022-12-03T08:02:35.000Z,63.51
2022-12-03T08:07:34.000Z,61.67
2022-12-03T08:12:35.000Z,68.58
2022-12-03T08:17:34.000Z,61.18
2022-12-03T08:22:35.000Z,64.64
2022-12-03T08:27:35.000Z,62.3
2022-12-03T08:32:34.000Z,60.43
2022-12-03T08:37:35.000Z,58.02
2022-12-03T08:42:35.000Z,55.29
2022-12-03T08:47:34.000Z,57.52
2022-12-03T08:52:35.000Z,65.31
2022-12-03T08:57:34.000Z,65.31
2022-12-03T09:02:35.000Z,66.63
2022-12-03T09:07:35.000Z,63.52
2022-12-03T09:12:35.000Z,60.65
2022-12-03T09:17:35.000Z,60.35
2022-12-03T09:22:35.000Z,55.82
2022-12-03T09:27:35.000Z,56.88
2022-12-03T09:32:35.000Z,54.6
2022-12-03T09:42:35.000Z,54.44
2022-12-03T09:47:35.000Z,54.26
2022-12-03T09:52:35.000Z,53.08
2022-12-03T09:57:35.000Z,53.08
2022-12-03T10:02:34.000Z,53.81
2022-12-03T10:07:35.000Z,55.22
2022-12-03T10:12:34.000Z,54.56
2022-12-03T10:17:34.000Z,50.38
2022-12-03T10:22:34.000Z,52.37
2022-12-03T10:27:35.000Z,50.05
2022-12-03T10:32:35.000Z,50.21
2022-12-03T10:37:35.000Z,50.74
2022-12-03T10:42:35.000Z,48.86
2022-12-03T10:47:35.000Z,51.16
2022-12-03T10:52:36.000Z,45.79
2022-12-03T10:57:35.000Z,48.23
2022-12-03T11:02:34.000Z,46.48
2022-12-03T11:07:35.000Z,46.91
2022-12-03T11:12:35.000Z,46.91
2022-12-03T11:17:35.000Z,46.64
2022-12-03T11:22:35.000Z,45.09
2022-12-03T11:27:34.000Z,45.13
2022-12-03T11:32:41.000Z,45.71
2022-12-03T11:37:35.000Z,45.88
2022-12-03T11:42:34.000Z,51.66
2022-12-03T11:47:35.000Z,51.8
2022-12-03T11:52:34.000Z,48.37
2022-12-03T11:57:34.000Z,55.93
2022-12-03T12:02:34.000Z,64.67
2022-12-03T12:07:35.000Z,56.63
2022-12-03T12:12:35.000Z,52.27
2022-12-03T12:17:34.000Z,49.63
2022-12-03T12:22:35.000Z,49.63
2022-12-03T12:27:35.000Z,46.98
2022-12-03T12:32:34.000Z,42.97
2022-12-03T12:37:34.000Z,43.18
2022-12-03T12:42:35.000Z,42.42
2022-12-03T12:47:34.000Z,39.77
2022-12-03T12:52:34.000Z,38.69
2022-12-03T12:57:34.000Z,37.05
2022-12-03T13:02:35.000Z,34.74
2022-12-03T13:07:35.000Z,35.6
2022-12-03T13:12:34.000Z,33.33
2022-12-03T13:17:35.000Z,35.41
2022-12-03T13:22:34.000Z,33.63
2022-12-03T13:27:35.000Z,33.26
2022-12-03T13:32:34.000Z,30.51
2022-12-03T13:37:35.000Z,30.51
2022-12-03T13:42:35.000Z,30.61
2022-12-03T13:47:34.000Z,29.66
2022-12-03T13:52:34.000Z,30.59
2022-12-03T13:57:34.000Z,31.81
2022-12-03T14:02:35.000Z,28.7
2022-12-03T14:07:34.000Z,29.63
2022-12-03T14:12:35.000Z,29.13
2022-12-03T14:17:34.000Z,28.53
2022-12-03T14:22:35.000Z,29.4
2022-12-03T14:27:35.000Z,31.5
2022-12-03T14:32:35.000Z,31.77
2022-12-03T14:37:34.000Z,31.69
2022-12-03T14:42:35.000Z,30.89
2022-12-03T14:47:34.000Z,30.89
2022-12-03T14:52:35.000Z,29.52
2022-12-03T14:57:34.000Z,31.55
2022-12-03T15:02:34.000Z,30.47
2022-12-03T15:07:35.000Z,28.99
2022-12-03T15:12:34.000Z,31.29
2022-12-03T15:17:42.000Z,31.37
2022-12-03T15:22:35.000Z,30.51
2022-12-03T15:32:35.000Z,38.13
2022-12-03T15:37:35.000Z,40.17
2022-12-03T15:42:35.000Z,45.52
2022-12-03T15:47:35.000Z,45.52
2022-12-03T15:52:34.000Z,45.54
2022-12-03T15:57:35.000Z,40.66
2022-12-03T16:02:35.000Z,38.79
2022-12-03T16:07:34.000Z,36.32
2022-12-03T16:12:35.000Z,36.96
2022-12-03T16:17:34.000Z,34.95
2022-12-03T16:27:36.000Z,28.52
2022-12-03T16:32:34.000Z,27.59
2022-12-03T16:42:34.000Z,27.24
2022-12-03T16:47:43.000Z,26.63
2022-12-03T16:52:34.000Z,27.6
2022-12-03T16:57:41.000Z,25.41
2022-12-03T17:02:35.000Z,25.48
2022-12-03T17:07:35.000Z,26.31
2022-12-03T17:12:35.000Z,26.31
2022-12-03T17:17:35.000Z,26.28
2022-12-03T17:22:34.000Z,26.86
2022-12-03T17:27:35.000Z,28.12
2022-12-03T17:32:35.000Z,27.82
2022-12-03T17:37:34.000Z,26.32
2022-12-03T17:42:35.000Z,26.57
2022-12-03T17:47:34.000Z,28.14
2022-12-03T17:52:35.000Z,25.72
2022-12-03T17:57:34.000Z,28.13
2022-12-03T18:02:35.000Z,29.54
2022-12-03T18:07:34.000Z,30.32
2022-12-03T18:12:35.000Z,29.23
2022-12-03T18:17:35.000Z,29.9
2022-12-03T18:22:34.000Z,29.9
2022-12-03T18:27:35.000Z,29.97
2022-12-03T18:32:39.000Z,31.96
2022-12-03T18:37:34.000Z,32.48
2022-12-03T18:42:35.000Z,34.04
2022-12-03T18:47:35.000Z,32.56
2022-12-03T18:52:35.000Z,32.72
2022-12-03T18:57:35.000Z,35.18
2022-12-03T19:03:04.000Z,34.25
2022-12-03T19:07:34.000Z,36.21
2022-12-03T19:12:35.000Z,34.16
2022-12-03T19:22:34.000Z,34.41
2022-12-03T19:27:35.000Z,32.33
2022-12-03T19:32:34.000Z,33.02
2022-12-03T19:37:35.000Z,31.24
2022-12-03T19:42:34.000Z,32.14
2022-12-03T19:47:35.000Z,32.08
2022-12-03T19:52:34.000Z,32.56
2022-12-03T19:57:35.000Z,32.53
2022-12-03T20:02:35.000Z,31.61
2022-12-03T20:07:34.000Z,36.36
2022-12-03T20:12:35.000Z,34.03
2022-12-03T20:17:34.000Z,33.28
2022-12-03T20:32:35.000Z,31.98
2022-12-03T20:42:35.000Z,34.47
2022-12-03T20:47:35.000Z,34.47
2022-12-03T20:52:35.000Z,31.44
2022-12-03T20:57:35.000Z,31.27
2022-12-03T21:02:34.000Z,28.45
2022-12-03T21:07:35.000Z,31.03
2022-12-03T21:12:34.000Z,29.89
2022-12-03T21:17:35.000Z,29.2
2022-12-03T21:22:35.000Z,30.73
2022-12-03T21:27:35.000Z,29.35
2022-12-03T21:32:35.000Z,29.91
2022-12-03T21:37:34.000Z,29.05
2022-12-03T21:42:47.000Z,29.66
2022-12-03T21:47:34.000Z,30.19
2022-12-03T21:52:35.000Z,29.77
2022-12-03T21:57:34.000Z,31.64
2022-12-03T22:07:34.000Z,29
2022-12-03T22:12:35.000Z,29.67
2022-12-03T22:17:34.000Z,29.54
2022-12-03T22:22:35.000Z,30.8
2022-12-03T22:27:34.000Z,30.8
2022-12-03T22:32:35.000Z,30.22
2022-12-03T22:37:35.000Z,30.04
2022-12-03T22:42:34.000Z,31.63
2022-12-03T22:47:34.000Z,29.04
2022-12-03T22:52:35.000Z,28.82
2022-12-03T22:57:34.000Z,32.34
2022-12-03T23:07:35.000Z,32.14
2022-12-03T23:12:34.000Z,33.21
2022-12-03T23:17:35.000Z,32.8
2022-12-03T23:22:35.000Z,33.24
2022-12-03T23:27:34.000Z,33.5
2022-12-03T23:32:35.000Z,32.6
2022-12-03T23:37:35.000Z,35.57
2022-12-03T23:42:34.000Z,35.57
2022-12-03T23:47:35.000Z,32.35
2022-12-03T23:52:34.000Z,32.95
2022-12-03T23:57:35.000Z,32.73
